Time;durP1;ratioP1;P1;durP2;ratioP2;P2;SDS_P1;SDS_P2;PMS_P1;PMS_P2;Temp;Humidity;BMP_temperature;BMP_pressure;BME280_temperature;BME280_humidity;BME280_pressure;Samples;Min_cycle;Max_cycle;Signal;HPM_P1;HPM_P2
2023/03/15 00:00:46;;;;;;;5.85;1.23;;;;;;;1.62;100.00;101224.50;6246654;23;20027;-78
2023/03/15 00:03:13;;;;;;;4.57;1.30;;;;;;;1.31;100.00;101184.38;6220278;23;20090;-79
2023/03/15 00:05:42;;;;;;;2.60;1.17;;;;;;;1.58;100.00;101230.53;6246935;23;20000;-80
2023/03/15 00:08:07;;;;;;;3.55;1.30;;;;;;;1.51;100.00;101223.88;6246709;23;20047;-80
2023/03/15 00:10:32;;;;;;;2.85;1.20;;;;;;;1.44;100.00;101223.13;6219459;23;20459;-80
2023/03/15 00:12:58;;;;;;;2.78;1.20;;;;;;;1.43;100.00;101226.56;6246709;23;20004;-80
2023/03/15 00:15:23;;;;;;;3.33;1.27;;;;;;;1.15;100.00;101177.88;6219283;23;20031;-80
2023/03/15 00:17:48;;;;;;;3.78;1.60;;;;;;;1.39;100.00;101228.31;6246543;23;20036;-79
2023/03/15 00:20:14;;;;;;;3.70;1.45;;;;;;;1.40;100.00;101224.91;6246523;23;20028;-80
2023/03/15 00:22:40;;;;;;;3.55;1.48;;;;;;;1.40;100.00;101224.91;6246661;23;20424;-79
2023/03/15 00:25:06;;;;;;;3.78;1.80;;;;;;;1.34;100.00;101206.38;6246319;23;20027;-76
2023/03/15 00:27:32;;;;;;;3.17;1.90;;;;;;;1.43;100.00;101218.91;6246520;23;20488;-81
2023/03/15 00:29:57;;;;;;;3.80;1.92;;;;;;;1.40;100.00;101212.19;6246923;23;20050;-80
2023/03/15 00:32:22;;;;;;;3.05;1.88;;;;;;;1.08;100.00;101176.31;6246217;23;20035;-80
2023/03/15 00:34:48;;;;;;;4.35;2.20;;;;;;;1.35;100.00;101219.06;6263989;22;20015;-80
2023/03/15 00:37:18;;;;;;;5.30;2.28;;;;;;;1.34;100.00;101225.00;6276966;22;20000;-81
2023/03/15 00:39:45;;;;;;;4.45;2.17;;;;;;;1.34;100.00;101222.47;6277262;22;20083;-80
2023/03/15 00:42:14;;;;;;;4.85;2.50;;;;;;;1.36;100.00;101225.81;6276829;22;20003;-81
2023/03/15 00:44:43;;;;;;;5.35;2.88;;;;;;;1.42;100.00;101227.44;6277676;22;20381;-82
2023/03/15 00:47:10;;;;;;;6.82;3.47;;;;;;;1.38;100.00;101208.84;6277007;22;20046;-82
2023/03/15 00:49:35;;;;;;;7.65;3.30;;;;;;;1.49;100.00;101215.44;6277059;22;20007;-80
2023/03/15 00:52:00;;;;;;;6.55;4.20;;;;;;;1.36;100.00;101204.63;6277172;22;20003;-80
2023/03/15 00:54:26;;;;;;;8.45;4.05;;;;;;;1.48;100.00;101229.03;6276853;22;20004;-81
2023/03/15 00:56:51;;;;;;;7.90;4.47;;;;;;;1.50;100.00;101225.56;6276736;22;20034;-81
2023/03/15 00:59:16;;;;;;;8.27;5.00;;;;;;;1.44;100.00;101216.34;6276982;22;20443;-80
2023/03/15 01:01:43;;;;;;;7.53;4.28;;;;;;;1.56;100.00;101230.53;6276626;22;20444;-78
2023/03/15 01:04:12;;;;;;;7.68;3.95;;;;;;;1.61;100.00;101235.53;6277304;22;20082;-81
2023/03/15 01:06:39;;;;;;;9.95;3.67;;;;;;;1.65;100.00;101249.88;6277241;22;19999;-81
2023/03/15 01:09:04;;;;;;;6.78;3.63;;;;;;;1.68;100.00;101248.13;6276620;22;20006;-78
2023/03/15 01:11:30;;;;;;;8.32;4.28;;;;;;;1.71;100.00;101252.31;6276658;22;20328;-78
2023/03/15 01:13:57;;;;;;;7.72;4.00;;;;;;;1.41;100.00;101200.31;6277069;22;20046;-81
2023/03/15 01:16:23;;;;;;;8.73;3.60;;;;;;;1.68;100.00;101257.47;6276733;22;20067;-82
2023/03/15 01:18:50;;;;;;;8.48;3.40;;;;;;;1.74;100.00;101257.34;6277021;22;20360;-80
2023/03/15 01:21:16;;;;;;;8.07;3.42;;;;;;;1.73;100.00;101258.22;6276342;22;20011;-82
2023/03/15 01:23:41;;;;;;;8.48;3.47;;;;;;;1.75;100.00;101264.09;6276708;22;20004;-77
2023/03/15 01:26:11;;;;;;;7.07;2.88;;;;;;;1.62;100.00;101243.16;6276375;22;20050;-77
2023/03/15 01:28:36;;;;;;;6.45;3.17;;;;;;;1.65;100.00;101266.00;6276785;22;20408;-80
2023/03/15 01:31:02;;;;;;;6.78;3.17;;;;;;;1.42;100.00;101253.72;6276716;22;20003;-79
2023/03/15 01:33:27;;;;;;;5.90;3.38;;;;;;;1.44;100.00;101279.97;6275846;22;20015;-79
2023/03/15 01:36:04;;;;;;;5.38;2.72;;;;;;;1.18;100.00;101271.09;6277038;22;20014;-74
2023/03/15 01:38:30;;;;;;;4.82;2.90;;;;;;;1.15;100.00;101294.88;6276044;22;20010;-80
2023/03/15 01:40:57;;;;;;;4.38;2.45;;;;;;;0.88;100.00;101275.81;6276859;22;20018;-81
2023/03/15 01:45:58;;;;;;;4.78;2.92;;;;;;;0.63;100.00;101305.88;6275129;22;20023;-82
2023/03/15 01:48:31;;;;;;;4.07;2.50;;;;;;;0.34;100.00;101267.34;6275965;22;20250;-81
2023/03/15 01:50:59;;;;;;;4.22;2.50;;;;;;;0.49;100.00;101290.84;6276465;22;20035;-80
2023/03/15 01:53:28;;;;;;;4.78;2.47;;;;;;;0.44;100.00;101287.50;6276665;22;20070;-81
2023/03/15 01:55:53;;;;;;;3.90;2.28;;;;;;;0.52;100.00;101311.09;6276650;22;20035;-81
2023/03/15 01:58:25;;;;;;;7.53;3.40;;;;;;;0.66;100.00;101315.16;6276191;22;20084;-80
2023/03/15 02:00:51;;;;;;;4.88;2.88;;;;;;;0.71;100.00;101321.03;6276212;22;20007;-76
2023/03/15 02:03:22;;;;;;;5.57;3.15;;;;;;;0.69;100.00;101318.50;6275926;22;19999;-76
2023/03/15 02:05:53;;;;;;;4.80;3.22;;;;;;;0.69;100.00;101318.50;6276212;22;20083;-80
2023/03/15 02:08:23;;;;;;;4.97;2.75;;;;;;;0.66;100.00;101305.81;6276272;22;20050;-78
2023/03/15 02:10:52;;;;;;;6.07;2.75;;;;;;;-0.27;100.00;101166.59;6292956;22;20011;-80
2023/03/15 02:13:23;;;;;;;5.25;3.15;;;;;;;0.49;100.00;101290.84;6307590;22;20003;-78
2023/03/15 02:15:52;;;;;;;4.63;2.83;;;;;;;0.66;100.00;101325.31;6307525;22;19999;-79
2023/03/15 02:18:19;;;;;;;6.07;3.03;;;;;;;0.74;100.00;101328.59;6307287;22;20003;-78
2023/03/15 02:21:13;;;;;;;5.63;3.45;;;;;;;0.72;100.00;101318.44;6279490;22;20353;-77
2023/03/15 02:23:39;;;;;;;5.72;2.80;;;;;;;0.77;100.00;101319.22;6306971;22;20011;-79
2023/03/15 02:26:27;;;;;;;5.15;3.05;;;;;;;0.79;100.00;101321.75;6307016;22;20007;-77
2023/03/15 02:28:53;;;;;;;5.43;3.03;;;;;;;0.67;100.00;101288.88;6307007;22;20003;-75
2023/03/15 02:31:20;;;;;;;6.05;3.70;;;;;;;0.80;100.00;101310.72;6307224;22;20084;-81
2023/03/15 02:33:49;;;;;;;7.45;3.80;;;;;;;0.79;100.00;101302.25;6307159;22;20070;-79
2023/03/15 02:36:26;;;;;;;6.72;4.10;;;;;;;0.85;100.00;101309.78;6307448;22;20007;-78
2023/03/15 02:38:53;;;;;;;8.18;3.80;;;;;;;0.71;100.00;101285.44;6307358;22;20003;-80
2023/03/15 02:41:52;;;;;;;8.32;4.00;;;;;;;0.95;100.00;101320.63;6307511;22;20034;-80
2023/03/15 02:44:26;;;;;;;7.15;4.10;;;;;;;1.00;100.00;101318.03;6154852;23;20041;-80
2023/03/15 02:46:54;;;;;;;8.23;4.72;;;;;;;0.90;100.00;101303.78;6129985;23;20024;-81
2023/03/15 02:49:24;;;;;;;8.88;4.72;;;;;;;1.04;100.00;101317.97;6154381;23;20010;-80
2023/03/15 02:51:50;;;;;;;8.33;5.13;;;;;;;0.90;100.00;101306.34;6154740;23;20036;-79
2023/03/15 02:54:15;;;;;;;9.93;5.13;;;;;;;1.07;100.00;101332.31;6154542;23;20009;-76
2023/03/15 02:56:40;;;;;;;9.60;5.40;;;;;;;0.93;100.00;101311.38;6154928;23;20045;-82
2023/03/15 02:59:06;;;;;;;13.20;5.90;;;;;;;1.12;100.00;101343.28;6154757;23;20032;-82
2023/03/15 03:01:36;;;;;;;10.13;5.38;;;;;;;1.15;100.00;101335.59;6154578;23;20089;-77
2023/03/15 03:04:04;;;;;;;10.85;6.50;;;;;;;1.18;100.00;101345.72;6154335;23;20808;-78
2023/03/15 03:06:29;;;;;;;10.57;6.25;;;;;;;1.20;100.00;101343.16;6154544;23;20005;-81
2023/03/15 03:08:55;;;;;;;11.27;6.75;;;;;;;1.21;100.00;101352.47;6154344;23;20012;-80
2023/03/15 03:11:20;;;;;;;12.07;7.05;;;;;;;1.21;100.00;101349.94;6154248;23;20488;-81
2023/03/15 03:13:46;;;;;;;15.10;7.70;;;;;;;1.25;100.00;101354.09;6154404;23;20180;-78
2023/03/15 03:16:11;;;;;;;12.80;8.63;;;;;;;1.26;100.00;101364.22;6154373;23;20031;-78
2023/03/15 03:18:37;;;;;;;15.63;10.00;;;;;;;1.21;100.00;101368.56;6154145;23;20048;-77
2023/03/15 03:21:05;;;;;;;16.02;9.98;;;;;;;0.98;100.00;101347.72;6239673;22;20007;-82
2023/03/15 03:23:32;;;;;;;20.95;10.23;;;;;;;0.97;100.00;101362.13;6277426;22;20000;-81
2023/03/15 03:25:59;;;;;;;18.27;11.18;;;;;;;0.95;100.00;101374.03;6277525;22;20004;-81
2023/03/15 03:28:26;;;;;;;16.08;10.52;;;;;;;0.94;100.00;101385.06;6277926;22;20004;-79
2023/03/15 03:30:52;;;;;;;19.48;11.82;;;;;;;0.85;100.00;101388.59;6278000;22;20112;-80
2023/03/15 03:33:19;;;;;;;18.77;12.07;;;;;;;0.73;100.00;101387.91;6277556;22;20106;-81
2023/03/15 03:35:44;;;;;;;20.50;14.05;;;;;;;0.50;100.00;101366.19;6277537;22;20011;-79
2023/03/15 03:38:10;;;;;;;22.38;14.55;;;;;;;0.74;100.00;101413.31;6277633;22;20003;-78
2023/03/15 03:40:39;;;;;;;23.55;14.25;;;;;;;0.76;100.00;101411.59;6277656;22;20035;-81
2023/03/15 03:43:06;;;;;;;23.88;14.93;;;;;;;0.52;100.00;101374.63;6277447;22;20004;-81
2023/03/15 03:45:32;;;;;;;22.75;13.88;;;;;;;0.45;100.00;101380.66;6277285;22;20050;-81
2023/03/15 03:47:57;;;;;;;23.88;14.43;;;;;;;0.56;100.00;101409.31;6277533;22;20008;-81
2023/03/15 03:50:22;;;;;;;22.20;13.95;;;;;;;0.45;100.00;101403.50;6277327;22;20000;-81
2023/03/15 03:52:48;;;;;;;23.50;14.45;;;;;;;0.45;100.00;101417.91;6276994;22;20000;-79
2023/03/15 03:55:13;;;;;;;22.58;14.52;;;;;;;0.28;100.00;101397.78;6277462;22;19999;-81
2023/03/15 03:57:40;;;;;;;21.15;14.68;;;;;;;0.40;100.00;101422.22;6277684;22;20082;-80
2023/03/15 04:00:08;;;;;;;22.05;14.30;;;;;;;0.24;100.00;101399.53;6277496;22;20000;-79
2023/03/15 04:02:34;;;;;;;26.05;15.20;;;;;;;0.37;100.00;101424.78;6277595;22;20090;-81
2023/03/15 04:04:59;;;;;;;25.58;15.27;;;;;;;0.27;100.00;101412.19;6277040;22;20093;-79
2023/03/15 04:07:25;;;;;;;22.73;15.60;;;;;;;0.32;100.00;101434.16;6277832;22;20007;-81
2023/03/15 04:09:50;;;;;;;25.23;15.18;;;;;;;0.30;100.00;101435.91;6278988;22;20302;-81
2023/03/15 04:12:15;;;;;;;24.42;14.80;;;;;;;0.11;100.00;101412.38;6308011;22;20014;-81
2023/03/15 04:14:41;;;;;;;24.33;14.75;;;;;;;0.23;100.00;101441.03;6307918;22;20007;-82
2023/03/15 04:17:07;;;;;;;23.30;13.98;;;;;;;0.08;100.00;101422.56;6308475;22;20003;-81
2023/03/15 04:19:33;;;;;;;23.25;14.18;;;;;;;0.16;100.00;101457.19;6308103;22;20045;-81
2023/03/15 04:21:58;;;;;;;22.45;14.02;;;;;;;0.13;100.00;101456.38;6307933;22;20007;-81
2023/03/15 04:24:23;;;;;;;22.02;14.13;;;;;;;0.10;100.00;101462.34;6308028;22;20008;-80
2023/03/15 04:26:49;;;;;;;25.83;15.63;;;;;;;-0.08;100.00;101437.13;6307695;22;20413;-81
2023/03/15 04:29:14;;;;;;;24.83;15.15;;;;;;;0.09;100.00;101473.31;6308232;22;20071;-81
2023/03/15 04:31:41;;;;;;;26.25;13.98;;;;;;;0.10;100.00;101469.94;6308030;22;20018;-77
2023/03/15 04:34:08;;;;;;;25.17;15.10;;;;;;;0.15;100.00;101480.06;6307945;22;20463;-81
2023/03/15 04:36:33;;;;;;;26.10;14.70;;;;;;;0.19;100.00;101480.00;6307979;22;20011;-81
2023/03/15 04:39:04;;;;;;;24.98;14.02;;;;;;;0.21;100.00;101480.00;6307620;22;19999;-79
2023/03/15 04:41:29;;;;;;;20.30;12.95;;;;;;;0.19;100.00;101490.16;6307242;22;20011;-81
2023/03/15 04:43:55;;;;;;;22.17;13.13;;;;;;;-0.08;100.00;101450.66;6307720;22;20004;-79
2023/03/15 04:46:20;;;;;;;22.05;12.65;;;;;;;0.15;100.00;101493.59;6307650;22;19999;-79
2023/03/15 04:48:45;;;;;;;23.58;12.98;;;;;;;0.18;100.00;101491.00;6308191;22;20003;-81
2023/03/15 04:51:11;;;;;;;22.05;12.50;;;;;;;0.17;100.00;101499.50;6307667;22;20003;-80
2023/03/15 04:53:37;;;;;;;21.52;12.40;;;;;;;0.15;100.00;101506.28;6307833;22;20030;-79
2023/03/15 04:56:03;;;;;;;19.23;11.73;;;;;;;0.01;100.00;101492.03;6307532;22;20358;-81
2023/03/15 04:58:28;;;;;;;22.23;11.85;;;;;;;-0.18;100.00;101474.44;6308022;22;20003;-81
2023/03/15 05:00:54;;;;;;;21.15;11.52;;;;;;;-0.03;100.00;101506.44;6307446;22;20008;-79
2023/03/15 05:03:19;;;;;;;19.05;11.40;;;;;;;-0.20;100.00;101493.88;6307448;22;20021;-81
2023/03/15 05:05:44;;;;;;;20.15;10.77;;;;;;;-0.17;100.00;101513.34;6307909;22;20010;-78
2023/03/15 05:08:10;;;;;;;20.42;11.77;;;;;;;-0.34;100.00;101513.47;6307707;22;20082;-81
2023/03/15 05:10:36;;;;;;;19.55;11.57;;;;;;;-0.27;100.00;101525.25;6279569;22;20049;-82
2023/03/15 05:13:04;;;;;;;20.90;12.15;;;;;;;-0.36;100.00;101513.47;6307561;22;19999;-80
2023/03/15 05:15:29;;;;;;;19.73;11.73;;;;;;;-0.33;100.00;101527.81;6307358;22;20002;-82
2023/03/15 05:17:55;;;;;;;20.52;11.32;;;;;;;-0.39;100.00;101530.44;6307602;22;19999;-82
2023/03/15 05:20:20;;;;;;;18.52;11.30;;;;;;;-0.61;100.00;101502.63;6307457;22;20068;-80
2023/03/15 05:22:46;;;;;;;20.40;11.98;;;;;;;-0.67;100.00;101500.16;6307386;22;20086;-80
2023/03/15 05:25:12;;;;;;;20.65;11.80;;;;;;;-0.57;100.00;101533.91;6307467;22;20011;-77
2023/03/15 05:27:38;;;;;;;19.73;11.40;;;;;;;-0.66;100.00;101522.13;6307818;22;20007;-80
2023/03/15 05:30:06;;;;;;;18.65;11.80;;;;;;;-0.64;100.00;101532.25;6307885;22;20003;-79
2023/03/15 05:32:36;;;;;;;19.42;11.63;;;;;;;-0.70;100.00;101538.19;6279864;22;20477;-79
2023/03/15 05:35:04;;;;;;;21.60;12.88;;;;;;;-0.70;100.00;101539.88;6307661;22;20359;-81
2023/03/15 05:37:31;;;;;;;21.13;12.25;;;;;;;-0.71;100.00;101541.56;6306702;22;20014;-81
2023/03/15 05:39:57;;;;;;;21.60;12.00;;;;;;;-0.72;100.00;101549.19;6279490;22;20145;-80
2023/03/15 05:42:25;;;;;;;19.05;12.00;;;;;;;-0.73;100.00;101550.06;6307476;22;20034;-80
2023/03/15 05:44:51;;;;;;;22.73;12.73;;;;;;;-0.72;100.00;101549.19;6307799;22;19999;-80
2023/03/15 05:47:17;;;;;;;20.15;12.32;;;;;;;-0.90;100.00;101532.38;6307840;22;19995;-78
2023/03/15 05:49:42;;;;;;;26.15;13.88;;;;;;;-0.76;100.00;101565.28;6307351;22;20379;-77
2023/03/15 05:52:08;;;;;;;26.23;13.48;;;;;;;-0.78;100.00;101559.38;6306930;22;20086;-80
2023/03/15 05:54:33;;;;;;;27.63;13.65;;;;;;;-0.78;100.00;101559.38;6307103;22;19999;-80
2023/03/15 05:56:59;;;;;;;23.67;13.55;;;;;;;-0.79;100.00;101566.13;6307152;22;20078;-80
2023/03/15 05:59:24;;;;;;;26.00;13.95;;;;;;;-0.79;100.00;101572.88;6306947;22;20034;-77
2023/03/15 06:01:49;;;;;;;22.42;13.25;;;;;;;-0.80;100.00;101574.59;6307311;22;20015;-80
2023/03/15 06:04:15;;;;;;;23.17;14.13;;;;;;;-0.82;100.00;101580.53;6306832;22;20003;-80
2023/03/15 06:06:40;;;;;;;23.23;12.93;;;;;;;-0.81;100.00;101587.28;6306783;22;20010;-82
2023/03/15 06:09:05;;;;;;;26.33;13.65;;;;;;;-0.94;100.00;101567.03;6306800;22;20000;-80
2023/03/15 06:11:33;;;;;;;26.13;14.52;;;;;;;-0.78;100.00;101590.66;6306582;22;20011;-81
2023/03/15 06:13:58;;;;;;;28.83;15.95;;;;;;;-0.73;100.00;101591.47;6307350;22;20086;-80
2023/03/15 06:16:24;;;;;;;28.70;16.02;;;;;;;-0.88;100.00;101567.03;6306620;22;20042;-81
2023/03/15 06:18:49;;;;;;;27.85;15.85;;;;;;;-0.61;100.00;101601.56;6306742;22;20006;-79
2023/03/15 06:21:15;;;;;;;31.48;16.55;;;;;;;-0.52;100.00;101595.59;6306684;22;20007;-79
2023/03/15 06:23:41;;;;;;;30.00;16.92;;;;;;;-0.60;100.00;101577.03;6307429;22;20082;-81
2023/03/15 06:26:06;;;;;;;32.33;16.05;;;;;;;-0.36;100.00;101598.91;6307256;22;20029;-80
2023/03/15 06:28:32;;;;;;;32.58;16.77;;;;;;;-0.20;100.00;101617.41;6307369;22;20010;-81
2023/03/15 06:30:57;;;;;;;30.15;16.63;;;;;;;-0.16;100.00;101611.47;6306959;22;20007;-77
2023/03/15 06:33:23;;;;;;;31.67;17.27;;;;;;;-0.05;100.00;101625.78;6306669;22;20070;-80
2023/03/15 06:35:49;;;;;;;31.92;16.70;;;;;;;-0.06;100.00;101603.78;6307176;22;19999;-77
2023/03/15 06:38:14;;;;;;;34.92;17.58;;;;;;;0.27;100.00;101645.88;6307107;22;20012;-81
2023/03/15 06:40:51;;;;;;;34.63;18.35;;;;;;;-0.75;100.00;101450.31;6304087;22;20460;-78
2023/03/15 06:43:24;;;;;;;33.30;18.35;;;;;;;0.49;100.00;101650.78;6306774;22;20090;-78
2023/03/15 06:45:50;;;;;;;32.10;18.85;;;;;;;0.43;100.00;101616.13;6306590;22;20002;-78
2023/03/15 06:48:21;;;;;;;31.05;18.08;;;;;;;0.07;100.00;101558.00;6306551;22;20007;-76
2023/03/15 06:50:49;;;;;;;;;;;;;;;0.74;100.00;101666.69;6307607;22;20010;-77
2023/03/15 06:53:18;;;;;;;28.98;17.17;;;;;;;-0.08;100.00;101531.88;6307032;22;19907;-76
2023/03/15 06:55:50;;;;;;;34.30;16.83;;;;;;;0.43;100.00;101611.03;6306734;22;19999;-78
2023/03/15 06:58:21;;;;;;;27.90;16.73;;;;;;;-0.03;100.00;101525.06;6307147;22;20026;-79
2023/03/15 07:00:48;;;;;;;32.38;16.95;;;;;;;0.98;100.00;101679.16;6306562;22;19999;-80
2023/03/15 07:03:13;;;;;;;27.95;16.58;;;;;;;1.00;100.00;101667.28;6306413;22;20425;-80
2023/03/15 07:05:39;;;;;;;26.63;16.50;;;;;;;1.24;100.00;101686.53;6306640;22;20029;-81
2023/03/15 07:08:05;;;;;;;26.02;16.27;;;;;;;1.33;100.00;101683.88;6306448;22;20429;-78
2023/03/15 07:10:30;;;;;;;27.00;16.55;;;;;;;1.48;100.00;101685.44;6306755;22;20082;-78
2023/03/15 07:12:55;;;;;;;25.50;15.93;;;;;;;1.51;100.00;101671.81;6306973;22;19999;-77
2023/03/15 07:15:21;;;;;;;29.45;15.45;;;;;;;1.72;100.00;101700.38;6304030;22;20005;-77
2023/03/15 07:20:16;;;;;;;22.42;14.13;;;;;;;0.80;100.00;101520.03;6275203;22;20024;-76
2023/03/15 07:22:48;;;;;;;21.48;14.10;;;;;;;1.26;100.00;101584.72;6275563;22;20433;-78
2023/03/15 07:25:14;;;;;;;22.25;13.90;;;;;;;2.12;100.00;101714.31;6275522;22;20049;-80
2023/03/15 07:27:39;;;;;;;23.30;14.55;;;;;;;2.15;100.00;101717.66;6277304;22;20488;-82
2023/03/15 07:30:07;;;;;;;19.35;13.52;;;;;;;2.11;100.00;101720.28;6277711;22;20007;-82
2023/03/15 07:32:32;;;;;;;21.98;13.30;;;;;;;2.05;100.00;101727.97;6277645;22;20007;-82
2023/03/15 07:34:59;;;;;;;19.73;13.10;;;;;;;1.98;100.00;101727.25;6277849;22;20490;-83
2023/03/15 07:37:26;;;;;;;22.67;13.55;;;;;;;1.88;100.00;101725.69;6276485;22;20035;-83
2023/03/15 07:39:51;;;;;;;19.33;12.07;;;;;;;1.85;100.00;101740.97;6277369;22;20081;-79
2023/03/15 07:42:17;;;;;;;22.67;13.77;;;;;;;1.81;100.00;101749.53;6277411;22;20011;-82
2023/03/15 07:44:42;;;;;;;20.08;12.35;;;;;;;1.49;100.00;101692.19;6278983;22;20042;-83
2023/03/15 07:47:07;;;;;;;19.63;13.48;;;;;;;1.79;100.00;101743.63;6277571;22;20015;-77
2023/03/15 07:49:33;;;;;;;22.38;13.63;;;;;;;1.85;100.00;101743.53;6277000;22;20003;-78
2023/03/15 07:51:58;;;;;;;22.60;12.60;;;;;;;1.73;100.00;101726.69;6277792;22;20014;-79
2023/03/15 07:54:24;;;;;;;21.83;12.23;;;;;;;1.85;100.00;101746.91;6277001;22;20440;-81
2023/03/15 07:56:49;;;;;;;18.83;12.50;;;;;;;1.98;100.00;101757.81;6277437;22;20084;-80
2023/03/15 07:59:14;;;;;;;19.38;12.48;;;;;;;2.04;100.00;101765.34;6277115;22;19999;-77
2023/03/15 08:01:40;;;;;;;15.15;9.93;;;;;;;2.08;100.00;101761.94;6277300;22;20015;-79
2023/03/15 08:04:05;;;;;;;13.10;8.70;;;;;;;2.03;100.00;101755.19;6249423;22;20375;-79
2023/03/15 08:06:30;;;;;;;16.42;9.93;;;;;;;2.18;100.00;101776.22;6276218;22;20448;-80
2023/03/15 08:08:56;;;;;;;15.55;10.00;;;;;;;2.24;100.00;101780.38;6276580;22;20413;-79
2023/03/15 08:11:21;;;;;;;15.27;9.23;;;;;;;2.26;100.00;101788.84;6276864;22;19999;-79
2023/03/15 08:13:46;;;;;;;16.25;9.45;;;;;;;2.32;100.00;101800.69;6277049;22;20010;-82
2023/03/15 08:16:12;;;;;;;13.25;8.25;;;;;;;2.17;100.00;101774.53;6276504;22;20031;-75
2023/03/15 08:18:37;;;;;;;15.65;6.75;;;;;;;2.41;100.00;101808.22;6276805;22;20035;-79
2023/03/15 08:21:03;;;;;;;14.02;6.50;;;;;;;2.45;100.00;101805.56;6276222;22;20015;-79
2023/03/15 08:23:28;;;;;;;8.95;5.32;;;;;;;2.47;100.00;101810.69;6277051;22;20015;-76
2023/03/15 08:25:54;;;;;;;11.38;5.93;;;;;;;2.47;100.00;101811.53;6249890;22;20321;-77
2023/03/15 08:28:20;;;;;;;12.02;5.63;;;;;;;2.46;100.00;101814.06;6249762;22;20071;-79
2023/03/15 08:30:45;;;;;;;12.45;5.45;;;;;;;2.54;100.00;101813.09;6276954;22;20412;-79
2023/03/15 08:33:11;;;;;;;9.85;5.78;;;;;;;2.35;100.00;101782.78;6276952;22;20004;-77
2023/03/15 08:35:37;;;;;;;13.68;5.70;;;;;;;2.26;100.00;101773.56;6276989;22;20031;-76
2023/03/15 08:38:02;;;;;;;10.23;5.60;;;;;;;2.62;100.00;101823.19;6276460;22;19999;-78
2023/03/15 08:40:30;;;;;;;12.05;5.70;;;;;;;2.65;100.00;101828.25;6275973;22;20019;-77
2023/03/15 08:42:56;;;;;;;13.02;4.90;;;;;;;2.57;100.00;101809.69;6277369;22;20364;-79
2023/03/15 08:45:23;;;;;;;11.60;5.60;;;;;;;2.69;100.00;101821.41;6276829;22;20134;-79
2023/03/15 08:47:52;;;;;;;11.80;5.60;;;;;;;2.75;100.00;101828.97;6276827;22;20448;-78
2023/03/15 08:50:18;;;;;;;11.48;5.75;;;;;;;2.83;100.00;101834.78;6275960;22;20004;-76
2023/03/15 08:52:43;;;;;;;13.50;5.65;;;;;;;2.69;100.00;101806.97;6247575;22;20376;-77
2023/03/15 08:55:09;;;;;;;15.10;6.00;;;;;;;2.91;100.00;101835.53;6277228;22;20015;-79
2023/03/15 08:57:35;;;;;;;12.82;5.50;;;;;;;2.96;100.00;101843.13;6277080;22;20075;-78
2023/03/15 09:00:06;;;;;;;11.70;5.97;;;;;;;3.04;100.00;101843.84;6275611;22;20451;-76
2023/03/15 09:02:32;;;;;;;12.65;6.13;;;;;;;3.03;100.00;101848.09;6276259;22;20008;-79
2023/03/15 09:04:57;;;;;;;14.90;5.40;;;;;;;3.10;100.00;101846.31;6275986;22;20012;-82
2023/03/15 09:07:23;;;;;;;10.52;4.78;;;;;;;3.10;100.00;101852.25;6276263;22;20004;-80
2023/03/15 09:09:48;;;;;;;14.02;5.78;;;;;;;3.14;100.00;101847.94;6276314;22;20043;-78
2023/03/15 09:12:15;;;;;;;11.52;4.88;;;;;;;3.20;100.00;101852.94;6276010;22;20054;-75
2023/03/15 09:14:40;;;;;;;14.18;5.45;;;;;;;3.03;100.00;101809.81;6276534;22;20008;-76
2023/03/15 09:17:06;;;;;;;12.82;6.07;;;;;;;3.32;100.00;101844.22;6276714;22;20320;-77
2023/03/15 09:19:31;;;;;;;13.07;5.50;;;;;;;3.40;100.00;101852.63;6276425;22;20011;-78
2023/03/15 09:21:56;;;;;;;10.38;4.20;;;;;;;3.50;100.00;101851.59;6276088;22;20019;-76
2023/03/15 09:24:22;;;;;;;13.35;4.68;;;;;;;3.51;100.00;101845.59;6276682;22;20080;-82
2023/03/15 09:26:47;;;;;;;11.65;3.67;;;;;;;3.60;100.00;101848.00;6276727;22;20004;-76
2023/03/15 09:29:13;;;;;;;11.55;4.07;;;;;;;3.60;100.00;101847.16;6276244;22;20007;-75
2023/03/15 09:31:38;;;;;;;10.35;3.90;;;;;;;3.54;100.00;101843.03;6276494;22;20014;-75
2023/03/15 09:34:04;;;;;;;9.88;3.47;;;;;;;3.64;100.00;101854.75;6276360;22;20030;-76
2023/03/15 09:36:30;;;;;;;10.02;3.55;;;;;;;3.39;100.00;101802.44;6276178;22;20079;-77
2023/03/15 09:38:56;;;;;;;12.95;4.35;;;;;;;3.56;100.00;101831.06;6276682;22;20006;-79
2023/03/15 09:41:48;;;;;;;11.88;4.30;;;;;;;3.81;100.00;101859.53;6276571;22;20082;-76
2023/03/15 09:44:23;;;;;;;13.02;4.38;;;;;;;3.71;100.00;101837.59;6276554;22;20000;-79
2023/03/15 09:47:00;;;;;;;10.25;3.10;;;;;;;3.97;100.00;101850.72;6276424;22;20034;-79
2023/03/15 09:49:44;;;;;;;9.85;2.90;;;;;;;4.16;100.00;101858.03;6276175;22;20004;-78
2023/03/15 09:52:32;;;;;;;10.18;2.60;;;;;;;4.28;100.00;101868.84;6276018;22;20004;-79
2023/03/15 09:55:19;;;;;;;9.60;2.50;;;;;;;4.33;96.75;101871.34;6275755;22;20483;-78
2023/03/15 09:57:54;;;;;;;9.30;3.03;;;;;;;4.42;96.48;101868.56;6275891;22;20000;-75
2023/03/15 10:00:35;;;;;;;8.30;2.90;;;;;;;4.41;99.95;101837.91;6276170;22;20104;-76
2023/03/15 10:03:05;;;;;;;12.25;2.50;;;;;;;4.57;98.74;101857.19;6275770;22;20061;-75
2023/03/15 10:05:40;;;;;;;10.80;2.42;;;;;;;4.83;97.43;101869.41;6276159;22;20004;-80
2023/03/15 10:08:11;;;;;;;9.15;3.05;;;;;;;4.98;95.20;101875.88;6276531;22;20087;-76
2023/03/15 10:10:44;;;;;;;10.65;4.03;;;;;;;5.03;94.28;101862.13;6275959;22;20004;-79
2023/03/15 10:13:23;;;;;;;10.63;3.40;;;;;;;4.99;94.07;101854.53;6275751;22;20004;-84
2023/03/15 10:16:02;;;;;;;8.40;2.65;;;;;;;5.13;91.08;101844.81;6276559;22;20016;-80
2023/03/15 10:18:40;;;;;;;11.57;3.33;;;;;;;5.41;92.23;101845.00;6275729;22;20011;-77
2023/03/15 10:21:15;;;;;;;5.72;1.70;;;;;;;5.81;89.04;101869.59;6275785;22;20016;-75
2023/03/15 10:23:53;;;;;;;12.82;2.75;;;;;;;5.93;84.97;101844.47;6276067;22;20015;-79
2023/03/15 10:26:23;;;;;;;8.05;2.75;;;;;;;6.46;86.96;101869.50;6275640;22;20473;-77
2023/03/15 10:28:50;;;;;;;9.65;2.15;;;;;;;6.72;79.88;101867.00;6275897;22;20012;-79
2023/03/15 10:31:26;;;;;;;5.55;1.90;;;;;;;6.72;78.96;101827.66;6278762;22;20489;-75
2023/03/15 10:33:53;;;;;;;7.90;1.60;;;;;;;6.47;80.52;101764.25;6276069;22;20078;-77
2023/03/15 10:36:22;;;;;;;8.15;1.48;;;;;;;7.25;79.95;101867.03;6275961;22;20082;-77
2023/03/15 10:38:49;;;;;;;8.75;2.20;;;;;;;7.37;74.93;101865.78;6276076;22;20003;-74
2023/03/15 10:41:40;;;;;;;7.22;1.95;;;;;;;7.55;77.71;101867.75;6275300;22;20037;-75
2023/03/15 10:44:11;;;;;;;9.02;1.80;;;;;;;7.65;72.33;101870.84;6275934;22;20004;-80
2023/03/15 10:46:37;;;;;;;10.55;1.90;;;;;;;7.56;69.65;101851.44;6275863;22;19996;-77
2023/03/15 10:49:14;;;;;;;6.75;1.70;;;;;;;7.86;72.72;101884.69;6275954;22;19999;-76
2023/03/15 10:51:45;;;;;;;8.20;1.88;;;;;;;7.99;72.64;101888.53;6276154;22;20000;-76
2023/03/15 10:54:21;;;;;;;8.88;2.10;;;;;;;8.03;72.16;101885.78;6274844;22;20005;-78
2023/03/15 10:57:13;;;;;;;5.43;1.35;;;;;;;7.88;69.60;101864.94;6276478;22;20053;-77
2023/03/15 10:59:52;;;;;;;;;;;;;;;8.05;72.96;101890.88;6276166;22;20173;-77
2023/03/15 11:02:23;;;;;;;6.82;1.48;;;;;;;8.07;68.81;101896.00;6247591;22;19914;-78
2023/03/15 11:05:04;;;;;;;6.87;1.43;;;;;;;8.19;65.85;101906.69;6277691;22;19996;-80
2023/03/15 11:07:34;;;;;;;8.45;1.50;;;;;;;8.05;63.88;101875.44;6277799;22;20034;-73
2023/03/15 11:10:01;;;;;;;6.32;1.50;;;;;;;7.91;61.71;101857.09;6277485;22;20007;-75
2023/03/15 11:12:33;;;;;;;6.55;1.17;;;;;;;8.17;59.10;101900.75;6250982;22;20058;-78
2023/03/15 11:15:06;;;;;;;6.07;1.20;;;;;;;8.16;61.68;101904.22;6277605;22;20050;-77
2023/03/15 11:17:35;;;;;;;7.28;1.70;;;;;;;8.06;62.92;101905.41;6278102;22;20049;-77
2023/03/15 11:20:32;;;;;;;9.65;1.40;;;;;;;7.99;62.71;101914.25;6277698;22;20417;-78
2023/03/15 11:22:59;;;;;;;10.70;1.85;;;;;;;7.78;62.65;101915.00;6277526;22;20016;-81
2023/03/15 11:25:30;;;;;;;7.95;1.38;;;;;;;7.73;65.81;101921.13;6249517;22;20004;-78